createdAt,value
2022-12-24T00:01:35.951Z,100.00
2022-12-24T00:04:04.151Z,100.00
2022-12-24T00:06:32.186Z,100.00
2022-12-24T00:09:00.574Z,100.00
2022-12-24T00:11:31.186Z,100.00
2022-12-24T00:13:59.275Z,100.00
2022-12-24T00:16:27.560Z,100.00
2022-12-24T00:18:57.790Z,100.00
2022-12-24T00:21:25.916Z,100.00
2022-12-24T00:23:54.352Z,100.00
2022-12-24T00:26:22.772Z,100.00
2022-12-24T00:28:52.405Z,100.00
2022-12-24T00:31:21.094Z,100.00
2022-12-24T00:33:49.577Z,100.00
2022-12-24T00:36:18.849Z,100.00
2022-12-24T00:38:47.653Z,100.00
2022-12-24T00:41:26.144Z,100.00
2022-12-24T00:43:57.584Z,100.00
2022-12-24T00:46:27.116Z,100.00
2022-12-24T00:48:55.714Z,100.00
2022-12-24T00:51:25.074Z,100.00
2022-12-24T00:53:57.145Z,100.00
2022-12-24T00:56:25.695Z,100.00
2022-12-24T00:58:55.426Z,100.00
2022-12-24T01:01:24.604Z,100.00
2022-12-24T01:04:12.961Z,100.00
2022-12-24T01:06:40.164Z,100.00
2022-12-24T01:09:08.427Z,100.00
2022-12-24T01:11:36.463Z,100.00
2022-12-24T01:14:06.071Z,100.00
2022-12-24T01:16:34.703Z,100.00
2022-12-24T01:19:03.661Z,100.00
2022-12-24T01:21:31.759Z,100.00
2022-12-24T01:23:59.879Z,100.00
2022-12-24T01:26:28.001Z,100.00
2022-12-24T01:28:57.582Z,100.00
2022-12-24T01:31:27.241Z,100.00
2022-12-24T01:33:55.522Z,100.00
2022-12-24T01:36:23.723Z,100.00
2022-12-24T01:38:52.246Z,100.00
2022-12-24T01:41:44.322Z,100.00
2022-12-24T01:44:27.148Z,100.00
2022-12-24T01:47:10.546Z,100.00
2022-12-24T01:49:42.440Z,100.00
2022-12-24T01:52:16.629Z,100.00
2022-12-24T01:54:49.802Z,100.00
2022-12-24T01:57:22.389Z,100.00
2022-12-24T01:59:58.002Z,100.00
2022-12-24T02:02:28.852Z,100.00
2022-12-24T02:05:03.238Z,100.00
2022-12-24T02:07:32.338Z,100.00
2022-12-24T02:10:03.112Z,100.00
2022-12-24T02:12:34.141Z,100.00
2022-12-24T02:15:03.858Z,100.00
2022-12-24T02:17:41.087Z,100.00
2022-12-24T02:20:30.396Z,100.00
2022-12-24T02:23:35.624Z,100.00
2022-12-24T02:26:16.833Z,100.00
2022-12-24T02:29:04.938Z,100.00
2022-12-24T02:31:41.377Z,100.00
2022-12-24T02:34:18.357Z,100.00
2022-12-24T02:36:51.740Z,100.00
2022-12-24T02:39:25.247Z,100.00
2022-12-24T02:42:09.419Z,100.00
2022-12-24T02:44:43.125Z,100.00
2022-12-24T02:47:23.698Z,100.00
2022-12-24T02:49:52.287Z,100.00
2022-12-24T02:52:31.492Z,100.00
2022-12-24T02:55:02.965Z,100.00
2022-12-24T02:57:45.107Z,100.00
2022-12-24T03:00:17.355Z,100.00
2022-12-24T03:03:08.775Z,100.00
2022-12-24T03:05:55.218Z,100.00
2022-12-24T03:08:33.834Z,100.00
2022-12-24T03:11:09.578Z,100.00
2022-12-24T03:13:38.510Z,100.00
2022-12-24T03:16:11.375Z,100.00
2022-12-24T03:18:45.783Z,100.00
2022-12-24T03:21:19.317Z,100.00
2022-12-24T03:23:48.676Z,100.00
2022-12-24T03:26:19.324Z,100.00
2022-12-24T03:28:48.534Z,100.00
2022-12-24T03:31:18.826Z,100.00
2022-12-24T03:33:52.187Z,100.00
2022-12-24T03:36:22.140Z,100.00
2022-12-24T03:38:51.304Z,100.00
2022-12-24T03:41:20.149Z,100.00
2022-12-24T03:43:48.836Z,100.00
2022-12-24T03:46:17.348Z,100.00
2022-12-24T03:48:50.140Z,100.00
2022-12-24T03:51:21.086Z,100.00
2022-12-24T03:53:53.584Z,100.00
2022-12-24T03:56:26.803Z,100.00
2022-12-24T03:58:57.822Z,100.00
2022-12-24T04:01:26.297Z,100.00
2022-12-24T04:03:56.209Z,100.00
2022-12-24T04:06:24.501Z,100.00
2022-12-24T04:08:52.836Z,100.00
2022-12-24T04:11:21.760Z,100.00
2022-12-24T04:13:50.445Z,100.00
2022-12-24T04:16:21.794Z,100.00
2022-12-24T04:18:50.313Z,100.00
2022-12-24T04:21:19.976Z,100.00
2022-12-24T04:23:48.526Z,100.00
2022-12-24T04:26:17.007Z,100.00
2022-12-24T04:28:45.451Z,100.00
2022-12-24T04:31:15.515Z,100.00
2022-12-24T04:33:44.208Z,100.00
2022-12-24T04:36:14.071Z,100.00
2022-12-24T04:38:43.773Z,100.00
2022-12-24T04:41:20.754Z,100.00
2022-12-24T04:43:53.994Z,100.00
2022-12-24T04:46:24.388Z,100.00
2022-12-24T04:48:54.252Z,100.00
2022-12-24T04:51:23.046Z,100.00
2022-12-24T04:53:53.316Z,100.00
2022-12-24T04:56:22.272Z,100.00
2022-12-24T04:58:51.210Z,100.00
2022-12-24T05:01:22.277Z,100.00
2022-12-24T05:03:51.176Z,100.00
2022-12-24T05:06:21.145Z,100.00
2022-12-24T05:08:49.911Z,100.00
2022-12-24T05:11:20.242Z,100.00
2022-12-24T05:13:48.598Z,100.00
2022-12-24T05:16:17.909Z,100.00
2022-12-24T05:18:46.410Z,100.00
2022-12-24T05:21:18.026Z,100.00
2022-12-24T05:24:03.721Z,100.00
2022-12-24T05:26:39.115Z,100.00
2022-12-24T05:29:08.344Z,100.00
2022-12-24T05:31:37.224Z,100.00
2022-12-24T05:34:05.228Z,100.00
2022-12-24T05:36:33.845Z,100.00
2022-12-24T05:39:02.347Z,100.00
2022-12-24T05:41:30.818Z,100.00
2022-12-24T05:44:00.364Z,100.00
2022-12-24T05:46:28.872Z,100.00
2022-12-24T05:48:56.997Z,100.00
2022-12-24T05:51:25.665Z,100.00
2022-12-24T05:53:53.832Z,100.00
2022-12-24T05:56:24.075Z,100.00
2022-12-24T05:58:53.586Z,100.00
2022-12-24T06:01:24.748Z,100.00
2022-12-24T06:03:54.736Z,100.00
2022-12-24T06:06:25.525Z,100.00
2022-12-24T06:08:55.714Z,100.00
2022-12-24T06:11:25.378Z,100.00
2022-12-24T06:13:54.157Z,100.00
2022-12-24T06:16:25.670Z,100.00
2022-12-24T06:18:54.646Z,100.00
2022-12-24T06:21:22.693Z,100.00
2022-12-24T06:23:50.823Z,100.00
2022-12-24T06:26:21.602Z,100.00
2022-12-24T06:28:50.697Z,100.00
2022-12-24T06:31:21.157Z,100.00
2022-12-24T06:33:51.703Z,100.00
2022-12-24T06:36:22.416Z,100.00
2022-12-24T06:38:50.924Z,100.00
2022-12-24T06:41:20.107Z,100.00
2022-12-24T06:43:49.275Z,100.00
2022-12-24T06:46:19.034Z,100.00
2022-12-24T06:48:47.599Z,100.00
2022-12-24T06:51:19.982Z,100.00
2022-12-24T06:53:50.653Z,100.00
2022-12-24T06:56:19.364Z,100.00
2022-12-24T06:58:47.434Z,100.00
2022-12-24T07:01:18.158Z,100.00
2022-12-24T07:03:46.997Z,100.00
2022-12-24T07:06:20.840Z,100.00
2022-12-24T07:08:50.347Z,100.00
2022-12-24T07:11:18.486Z,100.00
2022-12-24T07:13:48.170Z,100.00
2022-12-24T07:16:16.811Z,100.00
2022-12-24T07:18:45.018Z,100.00
2022-12-24T07:21:13.052Z,100.00
2022-12-24T07:23:42.756Z,100.00
2022-12-24T07:26:12.685Z,100.00
2022-12-24T07:28:41.363Z,100.00
2022-12-24T07:31:09.505Z,100.00
2022-12-24T07:33:37.732Z,100.00
2022-12-24T07:36:10.142Z,100.00
2022-12-24T07:38:46.446Z,100.00
2022-12-24T07:41:15.063Z,100.00
2022-12-24T07:43:43.133Z,100.00
2022-12-24T07:46:11.326Z,100.00
2022-12-24T07:48:39.729Z,100.00
2022-12-24T07:51:08.117Z,100.00
2022-12-24T07:53:36.221Z,100.00
2022-12-24T07:56:12.444Z,100.00
2022-12-24T07:58:41.313Z,100.00
2022-12-24T08:01:10.154Z,100.00
2022-12-24T08:03:38.681Z,100.00
2022-12-24T08:06:07.558Z,100.00
2022-12-24T08:08:35.682Z,100.00
2022-12-24T08:11:07.084Z,100.00
2022-12-24T08:13:35.304Z,100.00
2022-12-24T08:16:04.485Z,100.00
2022-12-24T08:18:32.884Z,100.00
2022-12-24T08:21:00.976Z,100.00
2022-12-24T08:23:29.261Z,100.00
2022-12-24T08:25:57.676Z,100.00
2022-12-24T08:28:27.152Z,100.00
2022-12-24T08:30:55.313Z,100.00
2022-12-24T08:33:23.449Z,100.00
2022-12-24T08:35:52.766Z,100.00
2022-12-24T08:38:21.919Z,100.00
2022-12-24T08:40:50.647Z,100.00
2022-12-24T08:43:19.225Z,100.00
2022-12-24T08:45:49.401Z,100.00
2022-12-24T08:48:17.339Z,100.00
2022-12-24T08:50:45.456Z,100.00
2022-12-24T08:53:15.314Z,100.00
2022-12-24T08:55:43.577Z,100.00
2022-12-24T08:58:11.667Z,100.00
2022-12-24T09:00:39.804Z,100.00
2022-12-24T09:03:09.443Z,100.00
2022-12-24T09:05:41.927Z,100.00
2022-12-24T09:08:16.591Z,100.00
2022-12-24T09:10:46.061Z,100.00
2022-12-24T09:13:16.977Z,100.00
2022-12-24T09:15:56.037Z,100.00
2022-12-24T09:18:27.239Z,100.00
2022-12-24T09:21:01.597Z,100.00
2022-12-24T09:23:31.573Z,100.00
2022-12-24T09:25:59.932Z,100.00
2022-12-24T09:28:30.353Z,100.00
2022-12-24T09:31:04.927Z,100.00
2022-12-24T09:33:37.892Z,100.00
2022-12-24T09:36:10.362Z,100.00
2022-12-24T09:38:40.364Z,100.00
2022-12-24T09:41:18.140Z,100.00
2022-12-24T09:43:50.942Z,100.00
2022-12-24T09:46:26.165Z,100.00
2022-12-24T09:49:01.872Z,100.00
2022-12-24T09:51:35.619Z,100.00
2022-12-24T09:54:11.537Z,100.00
2022-12-24T09:56:41.715Z,100.00
2022-12-24T09:59:12.591Z,100.00
2022-12-24T10:01:40.719Z,100.00
2022-12-24T10:04:14.614Z,100.00
2022-12-24T10:06:52.261Z,100.00
2022-12-24T10:09:32.381Z,100.00
2022-12-24T10:12:06.066Z,100.00
2022-12-24T10:14:54.675Z,100.00
2022-12-24T10:17:37.656Z,100.00
2022-12-24T10:20:34.909Z,100.00
2022-12-24T10:23:13.029Z,100.00
2022-12-24T10:25:49.148Z,100.00
2022-12-24T10:28:20.077Z,100.00
2022-12-24T10:30:53.094Z,100.00
2022-12-24T10:33:30.999Z,100.00
2022-12-24T10:36:01.137Z,100.00
2022-12-24T10:38:33.242Z,100.00
2022-12-24T10:41:02.571Z,100.00
2022-12-24T10:43:31.626Z,100.00
2022-12-24T10:46:02.975Z,100.00
2022-12-24T10:48:37.753Z,100.00
2022-12-24T10:51:16.240Z,100.00
2022-12-24T10:53:51.232Z,100.00
2022-12-24T10:56:20.959Z,100.00
2022-12-24T10:58:53.854Z,100.00
2022-12-24T11:01:43.084Z,100.00
2022-12-24T11:04:18.329Z,100.00
2022-12-24T11:07:01.789Z,100.00
2022-12-24T11:09:34.357Z,100.00
2022-12-24T11:12:09.668Z,100.00
2022-12-24T11:14:40.443Z,100.00
2022-12-24T11:17:23.417Z,100.00
2022-12-24T11:19:52.449Z,100.00
2022-12-24T11:22:25.904Z,100.00
2022-12-24T11:25:04.090Z,100.00
2022-12-24T11:27:40.417Z,100.00
2022-12-24T11:30:21.787Z,100.00
2022-12-24T11:32:52.263Z,100.00
2022-12-24T11:35:26.705Z,100.00
2022-12-24T11:38:12.527Z,100.00
2022-12-24T11:40:43.742Z,100.00
2022-12-24T11:43:17.680Z,100.00
2022-12-24T11:45:50.941Z,98.84
2022-12-24T11:48:35.607Z,99.51
2022-12-24T11:51:06.757Z,99.13
2022-12-24T11:53:43.248Z,98.63
2022-12-24T11:56:28.966Z,98.41
2022-12-24T11:59:03.927Z,97.82
2022-12-24T12:01:38.627Z,97.81
2022-12-24T12:04:12.656Z,97.20
2022-12-24T12:06:48.089Z,97.64
2022-12-24T12:09:22.022Z,97.63
2022-12-24T12:11:54.866Z,97.80
2022-12-24T12:14:29.663Z,98.24
2022-12-24T12:17:04.078Z,98.51
2022-12-24T12:19:39.537Z,99.11
2022-12-24T12:22:19.340Z,99.63
2022-12-24T12:24:54.368Z,99.96
2022-12-24T12:27:32.542Z,100.00
2022-12-24T12:30:04.185Z,100.00
2022-12-24T12:32:47.592Z,100.00
2022-12-24T12:35:23.000Z,100.00
2022-12-24T12:37:58.426Z,100.00
2022-12-24T12:40:40.813Z,100.00
2022-12-24T12:43:17.624Z,100.00
2022-12-24T12:45:54.206Z,100.00
2022-12-24T12:48:41.132Z,100.00
2022-12-24T12:51:14.338Z,100.00
2022-12-24T12:54:02.751Z,100.00
2022-12-24T12:56:35.603Z,100.00
2022-12-24T12:59:09.803Z,100.00
2022-12-24T13:01:47.183Z,100.00
2022-12-24T13:05:03.776Z,100.00
2022-12-24T13:08:09.104Z,100.00
2022-12-24T13:11:04.299Z,100.00
2022-12-24T13:14:08.551Z,100.00
2022-12-24T13:17:14.950Z,100.00
2022-12-24T13:20:09.488Z,100.00
2022-12-24T13:22:37.801Z,100.00
2022-12-24T13:25:06.468Z,100.00
2022-12-24T13:27:36.208Z,100.00
2022-12-24T13:30:28.888Z,100.00
2022-12-24T13:32:57.025Z,100.00
2022-12-24T13:35:37.168Z,100.00
2022-12-24T13:38:49.776Z,100.00
2022-12-24T13:41:57.299Z,100.00
2022-12-24T13:44:34.834Z,100.00
2022-12-24T13:47:32.121Z,100.00
2022-12-24T13:50:15.720Z,100.00
2022-12-24T13:52:53.178Z,100.00
2022-12-24T13:55:22.101Z,100.00
2022-12-24T13:57:59.857Z,100.00
2022-12-24T14:00:40.226Z,100.00
2022-12-24T14:03:24.227Z,100.00
2022-12-24T14:05:56.528Z,100.00
2022-12-24T14:08:33.043Z,100.00
2022-12-24T14:11:06.452Z,100.00
2022-12-24T14:13:57.049Z,100.00
2022-12-24T14:16:27.900Z,100.00
2022-12-24T14:19:03.602Z,100.00
2022-12-24T14:21:35.869Z,100.00
2022-12-24T14:24:08.180Z,100.00
2022-12-24T14:26:45.003Z,100.00
2022-12-24T14:29:24.957Z,100.00
2022-12-24T14:31:54.123Z,100.00
2022-12-24T14:34:24.348Z,100.00
2022-12-24T14:36:53.745Z,100.00
2022-12-24T14:39:28.921Z,100.00
2022-12-24T14:42:09.108Z,100.00
2022-12-24T14:44:45.855Z,100.00
2022-12-24T14:47:32.046Z,100.00
2022-12-24T14:50:28.137Z,100.00
2022-12-24T14:53:09.320Z,100.00
2022-12-24T14:55:42.784Z,100.00
2022-12-24T14:58:24.179Z,100.00
2022-12-24T15:00:54.211Z,100.00
2022-12-24T15:03:24.410Z,100.00
2022-12-24T15:05:55.206Z,100.00
2022-12-24T15:08:29.778Z,100.00
2022-12-24T15:11:03.065Z,100.00
2022-12-24T15:13:37.176Z,100.00
2022-12-24T15:16:07.092Z,100.00
2022-12-24T15:18:38.489Z,100.00
2022-12-24T15:21:17.709Z,100.00
2022-12-24T15:23:49.146Z,100.00
2022-12-24T15:26:23.662Z,100.00
2022-12-24T15:29:02.390Z,100.00
2022-12-24T15:31:32.932Z,100.00
2022-12-24T15:34:03.661Z,100.00
2022-12-24T15:36:35.766Z,100.00
2022-12-24T15:39:07.703Z,100.00
2022-12-24T15:42:00.560Z,100.00
2022-12-24T15:44:31.351Z,100.00
2022-12-24T15:47:01.798Z,100.00
2022-12-24T15:49:32.564Z,100.00
2022-12-24T15:52:07.328Z,100.00
2022-12-24T15:54:36.311Z,100.00
2022-12-24T15:57:16.377Z,100.00
2022-12-24T15:59:44.704Z,100.00
2022-12-24T16:02:43.405Z,100.00
2022-12-24T16:05:31.303Z,100.00
2022-12-24T16:08:30.965Z,100.00
2022-12-24T16:11:16.105Z,100.00
2022-12-24T16:13:52.692Z,100.00
2022-12-24T16:16:23.676Z,100.00
2022-12-24T16:18:55.463Z,100.00
2022-12-24T16:21:27.633Z,100.00
2022-12-24T16:23:59.878Z,100.00
2022-12-24T16:26:28.060Z,100.00
2022-12-24T16:28:56.830Z,100.00
2022-12-24T16:31:31.419Z,100.00
2022-12-24T16:34:01.121Z,100.00
2022-12-24T16:36:29.290Z,100.00
2022-12-24T16:39:17.267Z,100.00
2022-12-24T16:42:04.116Z,100.00
2022-12-24T16:44:32.414Z,100.00
2022-12-24T16:47:01.605Z,100.00
2022-12-24T16:49:30.911Z,100.00
2022-12-24T16:51:59.849Z,100.00
2022-12-24T16:54:30.185Z,100.00
2022-12-24T16:56:59.698Z,100.00
2022-12-24T16:59:27.907Z,100.00
2022-12-24T17:01:56.304Z,100.00
2022-12-24T17:04:24.744Z,100.00
2022-12-24T17:06:53.520Z,100.00
2022-12-24T17:09:22.299Z,100.00
2022-12-24T17:11:52.474Z,100.00
2022-12-24T17:14:21.071Z,100.00
2022-12-24T17:16:49.459Z,100.00
2022-12-24T17:19:20.432Z,100.00
2022-12-24T17:21:49.433Z,100.00
2022-12-24T17:24:17.883Z,100.00
2022-12-24T17:26:46.609Z,100.00
2022-12-24T17:29:16.123Z,100.00
2022-12-24T17:31:44.583Z,100.00
2022-12-24T17:34:12.729Z,100.00
2022-12-24T17:36:41.039Z,100.00
2022-12-24T17:39:09.221Z,100.00
2022-12-24T17:41:45.924Z,100.00
2022-12-24T17:44:15.994Z,100.00
2022-12-24T17:46:44.261Z,100.00
2022-12-24T17:49:13.509Z,100.00
2022-12-24T17:51:45.641Z,100.00
2022-12-24T17:54:14.610Z,100.00
2022-12-24T17:56:42.657Z,100.00
2022-12-24T17:59:11.007Z,100.00
2022-12-24T18:01:40.619Z,100.00
2022-12-24T18:04:09.000Z,100.00
2022-12-24T18:06:37.166Z,100.00
2022-12-24T18:09:05.705Z,100.00
2022-12-24T18:11:36.161Z,100.00
2022-12-24T18:14:05.677Z,100.00
2022-12-24T18:16:37.107Z,100.00
2022-12-24T18:19:10.486Z,100.00
2022-12-24T18:21:38.791Z,100.00
2022-12-24T18:24:07.715Z,100.00
2022-12-24T18:26:36.206Z,100.00
2022-12-24T18:29:05.846Z,100.00
2022-12-24T18:31:38.582Z,100.00
2022-12-24T18:34:10.567Z,100.00
2022-12-24T18:36:38.953Z,100.00
2022-12-24T18:39:07.407Z,100.00
2022-12-24T18:41:36.261Z,100.00
2022-12-24T18:44:04.586Z,100.00
2022-12-24T18:46:35.131Z,100.00
2022-12-24T18:49:03.654Z,100.00
2022-12-24T18:51:35.506Z,100.00
2022-12-24T18:54:03.902Z,100.00
2022-12-24T18:56:32.572Z,100.00
2022-12-24T18:59:02.321Z,100.00
2022-12-24T19:01:32.541Z,100.00
2022-12-24T19:04:01.553Z,100.00
2022-12-24T19:06:30.414Z,100.00
2022-12-24T19:09:01.466Z,100.00
2022-12-24T19:11:32.456Z,100.00
2022-12-24T19:14:01.716Z,100.00
2022-12-24T19:16:31.817Z,100.00
2022-12-24T19:18:59.675Z,100.00
2022-12-24T19:21:28.162Z,100.00
2022-12-24T19:23:56.449Z,100.00
2022-12-24T19:26:26.063Z,100.00
2022-12-24T19:28:54.869Z,100.00
2022-12-24T19:31:24.962Z,100.00
2022-12-24T19:33:56.462Z,100.00
2022-12-24T19:36:27.004Z,100.00
2022-12-24T19:38:55.749Z,100.00
2022-12-24T19:41:27.862Z,100.00
2022-12-24T19:43:57.279Z,100.00
2022-12-24T19:46:27.815Z,100.00
2022-12-24T19:48:57.924Z,100.00
2022-12-24T19:51:27.445Z,100.00
2022-12-24T19:53:56.386Z,100.00
2022-12-24T19:56:27.090Z,100.00
2022-12-24T19:58:57.576Z,100.00
2022-12-24T20:01:27.885Z,100.00
2022-12-24T20:03:56.761Z,100.00
2022-12-24T20:06:27.341Z,100.00
2022-12-24T20:09:00.202Z,100.00
2022-12-24T20:11:30.387Z,100.00
2022-12-24T20:13:59.749Z,100.00
2022-12-24T20:16:29.722Z,100.00
2022-12-24T20:19:00.267Z,100.00
2022-12-24T20:21:29.306Z,100.00
2022-12-24T20:23:57.809Z,100.00
2022-12-24T20:26:28.370Z,100.00
2022-12-24T20:28:58.096Z,100.00
2022-12-24T20:31:30.343Z,100.00
2022-12-24T20:34:01.500Z,100.00
2022-12-24T20:36:31.244Z,100.00
2022-12-24T20:39:01.229Z,100.00
2022-12-24T20:41:31.370Z,100.00
2022-12-24T20:44:01.050Z,100.00
2022-12-24T20:46:32.166Z,100.00
2022-12-24T20:49:00.267Z,100.00
2022-12-24T20:51:29.164Z,100.00
2022-12-24T20:53:59.248Z,100.00
2022-12-24T20:56:27.677Z,100.00
2022-12-24T20:58:58.718Z,100.00
2022-12-24T21:01:28.565Z,100.00
2022-12-24T21:04:00.312Z,100.00
2022-12-24T21:06:28.596Z,100.00
2022-12-24T21:08:56.667Z,100.00
2022-12-24T21:11:42.293Z,100.00
2022-12-24T21:14:11.049Z,100.00
2022-12-24T21:16:44.355Z,100.00
2022-12-24T21:19:17.089Z,100.00
2022-12-24T21:21:45.550Z,100.00
2022-12-24T21:24:13.668Z,100.00
2022-12-24T21:26:41.904Z,100.00
2022-12-24T21:29:10.553Z,100.00
2022-12-24T21:31:40.455Z,100.00
2022-12-24T21:34:10.930Z,100.00
2022-12-24T21:36:39.046Z,100.00
2022-12-24T21:39:07.092Z,100.00
2022-12-24T21:41:35.198Z,100.00
2022-12-24T21:44:03.839Z,100.00
2022-12-24T21:46:32.337Z,100.00
2022-12-24T21:49:19.451Z,100.00
2022-12-24T21:51:49.105Z,100.00
2022-12-24T21:54:28.727Z,100.00
2022-12-24T21:57:16.358Z,100.00
2022-12-24T21:59:46.129Z,100.00
2022-12-24T22:02:15.886Z,100.00
2022-12-24T22:04:45.944Z,100.00
2022-12-24T22:07:40.884Z,100.00
2022-12-24T22:10:27.445Z,100.00
2022-12-24T22:12:56.263Z,100.00
2022-12-24T22:15:24.443Z,100.00
2022-12-24T22:17:53.976Z,100.00
2022-12-24T22:20:24.794Z,100.00
2022-12-24T22:22:52.920Z,100.00
2022-12-24T22:25:20.998Z,100.00
2022-12-24T22:27:49.008Z,100.00
2022-12-24T22:30:17.354Z,100.00
2022-12-24T22:32:45.722Z,100.00
2022-12-24T22:35:14.555Z,100.00
2022-12-24T22:37:44.795Z,100.00
2022-12-24T22:40:15.720Z,100.00
2022-12-24T22:42:46.642Z,100.00
2022-12-24T22:45:27.943Z,100.00
2022-12-24T22:48:30.850Z,100.00
2022-12-24T22:51:29.178Z,100.00
2022-12-24T22:54:02.136Z,100.00
2022-12-24T22:56:41.529Z,100.00
2022-12-24T22:59:26.671Z,100.00
2022-12-24T23:02:06.143Z,100.00
2022-12-24T23:05:14.652Z,100.00
2022-12-24T23:08:17.199Z,100.00
2022-12-24T23:11:03.060Z,100.00
2022-12-24T23:14:04.733Z,100.00
2022-12-24T23:17:13.738Z,100.00
2022-12-24T23:19:58.247Z,100.00
2022-12-24T23:22:58.180Z,100.00
2022-12-24T23:25:26.831Z,100.00
2022-12-24T23:27:56.557Z,100.00
2022-12-24T23:30:25.291Z,100.00
2022-12-24T23:32:53.463Z,100.00
2022-12-24T23:35:21.917Z,100.00
2022-12-24T23:37:51.690Z,100.00
2022-12-24T23:40:20.104Z,100.00
2022-12-24T23:42:49.366Z,100.00
2022-12-24T23:45:20.405Z,100.00
2022-12-24T23:47:48.426Z,100.00
2022-12-24T23:50:16.587Z,100.00
2022-12-24T23:52:44.668Z,100.00
2022-12-24T23:55:12.754Z,100.00
2022-12-24T23:57:40.870Z,100.00
